createdAt,value
2022-12-14T00:01:14.974Z,9.07
2022-12-14T00:06:36.059Z,10.27
2022-12-14T00:11:43.128Z,8.60
2022-12-14T00:17:02.409Z,7.97
2022-12-14T00:22:15.860Z,7.70
2022-12-14T00:27:36.658Z,9.13
2022-12-14T00:32:52.126Z,6.80
2022-12-14T00:38:11.452Z,10.20
2022-12-14T00:43:23.128Z,9.17
2022-12-14T00:48:37.741Z,8.87
2022-12-14T00:53:54.325Z,8.87
2022-12-14T00:58:59.400Z,6.30
2022-12-14T01:04:27.332Z,7.77
2022-12-14T01:09:40.034Z,10.00
2022-12-14T01:14:47.456Z,8.43
2022-12-14T01:20:04.997Z,8.90
2022-12-14T01:25:21.603Z,8.73
2022-12-14T01:30:44.487Z,6.60
2022-12-14T01:35:53.824Z,7.87
2022-12-14T01:41:05.431Z,6.80
2022-12-14T01:46:17.199Z,6.33
2022-12-14T01:51:29.504Z,7.37
2022-12-14T01:56:57.289Z,7.03
2022-12-14T02:02:19.262Z,5.53
2022-12-14T02:07:30.379Z,6.33
2022-12-14T02:12:43.688Z,6.20
2022-12-14T02:17:56.592Z,7.07
2022-12-14T02:23:49.709Z,5.60
2022-12-14T02:29:54.068Z,6.00
2022-12-14T02:35:07.980Z,5.33
2022-12-14T02:40:30.751Z,9.07
2022-12-14T02:45:50.285Z,9.93
2022-12-14T02:51:17.780Z,8.07
2022-12-14T02:56:32.461Z,7.40
2022-12-14T03:01:48.507Z,7.30
2022-12-14T03:07:05.841Z,7.27
2022-12-14T03:12:26.854Z,6.13
2022-12-14T03:17:42.086Z,5.17
2022-12-14T03:23:11.331Z,6.93
2022-12-14T03:34:13.186Z,7.27
2022-12-14T03:39:26.655Z,10.30
2022-12-14T03:44:57.579Z,6.70
2022-12-14T03:50:14.611Z,5.80
2022-12-14T03:55:37.319Z,7.47
2022-12-14T04:00:59.634Z,5.93
2022-12-14T04:06:33.159Z,5.67
2022-12-14T04:12:15.033Z,5.73
2022-12-14T04:17:45.976Z,8.53
2022-12-14T04:23:42.536Z,5.67
2022-12-14T04:29:16.299Z,5.90
2022-12-14T04:34:31.219Z,5.67
2022-12-14T04:39:50.732Z,5.93
2022-12-14T04:45:11.178Z,5.90
2022-12-14T04:50:31.691Z,4.10
2022-12-14T04:55:59.791Z,4.93
2022-12-14T05:01:21.558Z,5.23
2022-12-14T05:06:42.688Z,5.83
2022-12-14T05:12:07.664Z,8.97
2022-12-14T05:17:38.585Z,7.87
2022-12-14T05:28:31.790Z,6.77
2022-12-14T05:33:41.655Z,7.00
2022-12-14T05:39:09.033Z,7.70
2022-12-14T05:44:17.095Z,6.33
2022-12-14T05:49:54.415Z,6.57
2022-12-14T05:55:47.795Z,5.90
2022-12-14T06:01:19.828Z,6.60
2022-12-14T06:06:42.056Z,5.07
2022-12-14T06:12:00.083Z,5.00
2022-12-14T06:17:33.036Z,5.57
2022-12-14T06:22:41.554Z,5.03
2022-12-14T06:27:49.681Z,6.77
2022-12-14T06:33:04.666Z,6.97
2022-12-14T06:38:10.760Z,4.77
2022-12-14T06:43:14.355Z,5.03
2022-12-14T06:48:19.590Z,6.03
2022-12-14T06:53:23.579Z,6.40
2022-12-14T06:58:32.389Z,9.83
2022-12-14T07:03:38.649Z,10.87
2022-12-14T07:08:42.486Z,7.47
2022-12-14T07:13:48.813Z,8.57
2022-12-14T07:18:59.458Z,10.47
2022-12-14T07:24:04.035Z,5.40
2022-12-14T07:29:15.263Z,4.53
2022-12-14T07:34:26.414Z,8.00
2022-12-14T07:39:34.188Z,6.53
2022-12-14T07:44:41.361Z,7.13
2022-12-14T07:50:01.346Z,5.43
2022-12-14T07:55:05.715Z,6.70
2022-12-14T08:00:15.042Z,6.27
2022-12-14T08:05:25.940Z,6.90
2022-12-14T08:10:38.619Z,6.63
2022-12-14T08:15:55.905Z,7.47
2022-12-14T08:21:18.957Z,13.80
2022-12-14T08:26:25.570Z,10.80
2022-12-14T08:31:44.165Z,7.20
2022-12-14T08:36:51.969Z,10.37
2022-12-14T08:42:02.328Z,9.40
2022-12-14T08:47:11.238Z,11.07
2022-12-14T08:52:24.175Z,8.87
2022-12-14T08:57:28.273Z,9.87
2022-12-14T09:02:35.583Z,11.80
2022-12-14T09:07:47.785Z,10.77
2022-12-14T09:13:06.865Z,12.37
2022-12-14T09:18:18.864Z,10.43
2022-12-14T09:23:31.267Z,6.63
2022-12-14T09:28:43.338Z,6.70
2022-12-14T09:33:49.422Z,9.63
2022-12-14T09:39:03.222Z,12.60
2022-12-14T09:44:38.024Z,8.73
2022-12-14T09:49:47.336Z,7.60
2022-12-14T09:54:55.761Z,9.30
2022-12-14T10:00:02.752Z,6.73
2022-12-14T10:05:32.384Z,9.23
2022-12-14T10:10:51.189Z,6.20
2022-12-14T10:16:09.477Z,6.70
2022-12-14T10:21:19.998Z,5.33
2022-12-14T10:26:31.434Z,6.20
2022-12-14T10:31:56.063Z,5.77
2022-12-14T10:37:32.088Z,6.60
2022-12-14T10:42:59.151Z,12.27
2022-12-14T10:48:34.399Z,5.37
2022-12-14T10:53:59.202Z,6.23
2022-12-14T11:00:03.617Z,6.80
2022-12-14T11:05:35.964Z,5.10
2022-12-14T11:10:51.259Z,5.77
2022-12-14T11:16:01.920Z,2.43
2022-12-14T11:21:34.318Z,7.50
2022-12-14T11:26:46.564Z,5.00
2022-12-14T11:31:58.442Z,3.80
2022-12-14T11:37:24.607Z,5.13
2022-12-14T11:42:29.889Z,6.33
2022-12-14T11:47:43.117Z,6.07
2022-12-14T11:52:47.700Z,5.43
2022-12-14T11:58:01.534Z,3.03
2022-12-14T12:03:13.147Z,3.83
2022-12-14T12:08:27.226Z,1.87
2022-12-14T12:13:37.589Z,1.90
2022-12-14T12:18:48.263Z,2.37
2022-12-14T12:24:01.534Z,1.20
2022-12-14T12:29:12.789Z,1.60
2022-12-14T12:34:22.286Z,3.70
2022-12-14T12:39:26.762Z,3.50
2022-12-14T12:44:49.636Z,2.13
2022-12-14T12:49:55.689Z,4.10
2022-12-14T12:55:02.877Z,2.80
2022-12-14T13:00:07.983Z,1.50
2022-12-14T13:05:45.264Z,1.67
2022-12-14T13:11:02.426Z,3.17
2022-12-14T13:16:15.822Z,1.13
2022-12-14T13:21:32.194Z,2.30
2022-12-14T13:27:16.910Z,1.33
2022-12-14T13:32:37.893Z,3.00
2022-12-14T13:37:58.216Z,4.10
2022-12-14T13:43:23.395Z,5.43
2022-12-14T13:48:30.126Z,2.23
2022-12-14T13:53:38.904Z,2.63
2022-12-14T13:58:44.592Z,3.13
2022-12-14T14:03:52.514Z,1.73
2022-12-14T14:08:57.688Z,2.20
2022-12-14T14:14:19.596Z,5.10
2022-12-14T14:19:25.376Z,7.33
2022-12-14T14:24:31.293Z,4.40
2022-12-14T14:29:35.852Z,5.80
2022-12-14T14:34:48.044Z,5.40
2022-12-14T14:40:23.874Z,5.07
2022-12-14T14:45:41.569Z,4.60
2022-12-14T14:50:48.675Z,3.87
2022-12-14T14:56:01.357Z,4.67
2022-12-14T15:01:25.212Z,5.43
2022-12-14T15:06:32.023Z,3.40
2022-12-14T15:11:45.744Z,3.30
2022-12-14T15:16:52.450Z,3.47
2022-12-14T15:21:58.847Z,7.20
2022-12-14T15:27:10.962Z,3.87
2022-12-14T15:32:20.595Z,3.27
2022-12-14T15:37:29.238Z,2.57
2022-12-14T15:42:35.908Z,2.53
2022-12-14T15:47:44.914Z,3.23
2022-12-14T15:53:03.241Z,4.77
2022-12-14T15:58:21.151Z,4.50
2022-12-14T16:03:32.019Z,4.33
2022-12-14T16:08:38.279Z,3.57
2022-12-14T16:13:49.082Z,5.50
2022-12-14T16:18:54.295Z,5.37
2022-12-14T16:24:26.514Z,7.77
2022-12-14T16:29:34.569Z,7.53
2022-12-14T16:34:39.731Z,4.93
2022-12-14T16:39:54.198Z,7.90
2022-12-14T16:44:59.449Z,7.93
2022-12-14T16:50:03.941Z,10.60
2022-12-14T16:55:16.640Z,9.63
2022-12-14T17:00:25.430Z,6.97
2022-12-14T17:05:41.595Z,6.73
2022-12-14T17:10:50.371Z,6.27
2022-12-14T17:16:01.670Z,5.17
2022-12-14T17:21:09.957Z,8.20
2022-12-14T17:26:26.900Z,7.60
2022-12-14T17:31:37.167Z,4.53
2022-12-14T17:36:46.620Z,5.37
2022-12-14T17:41:54.516Z,7.40
2022-12-14T17:47:12.325Z,10.10
2022-12-14T17:52:44.259Z,7.60
2022-12-14T17:58:11.510Z,6.13
2022-12-14T18:03:26.961Z,7.63
2022-12-14T18:08:31.630Z,9.93
2022-12-14T18:13:40.305Z,11.53
2022-12-14T18:18:54.824Z,8.43
2022-12-14T18:24:01.436Z,11.30
2022-12-14T18:29:16.517Z,11.13
2022-12-14T18:34:23.400Z,7.80
2022-12-14T18:39:28.725Z,7.67
2022-12-14T18:44:33.294Z,6.13
2022-12-14T18:49:47.641Z,7.00
2022-12-14T18:54:57.129Z,8.50
2022-12-14T19:00:08.064Z,9.43
2022-12-14T19:05:20.834Z,7.90
2022-12-14T19:10:38.285Z,7.23
2022-12-14T19:15:50.337Z,6.07
2022-12-14T19:21:04.651Z,11.13
2022-12-14T19:26:17.503Z,9.60
2022-12-14T19:31:24.131Z,6.70
2022-12-14T19:36:36.871Z,7.43
2022-12-14T19:41:48.030Z,6.60
2022-12-14T19:46:56.118Z,7.00
2022-12-14T19:52:23.682Z,7.97
2022-12-14T19:57:29.450Z,5.10
2022-12-14T20:02:38.286Z,5.83
2022-12-14T20:07:57.433Z,5.53
2022-12-14T20:13:05.208Z,7.20
2022-12-14T20:18:15.351Z,7.97
2022-12-14T20:23:32.246Z,4.27
2022-12-14T20:28:39.112Z,4.97
2022-12-14T20:33:49.177Z,5.33
2022-12-14T20:39:11.103Z,5.00
2022-12-14T20:44:20.184Z,6.43
2022-12-14T20:49:30.846Z,12.30
2022-12-14T20:54:47.577Z,6.47
2022-12-14T21:00:09.297Z,4.57
2022-12-14T21:05:35.845Z,7.30
2022-12-14T21:11:21.384Z,23.53
2022-12-14T21:16:34.932Z,9.13
2022-12-14T21:21:53.548Z,6.20
2022-12-14T21:27:24.662Z,9.47
2022-12-14T21:32:55.913Z,11.93
2022-12-14T21:38:36.822Z,10.30
2022-12-14T21:43:54.513Z,10.60
2022-12-14T21:49:14.828Z,9.30
2022-12-14T21:54:29.452Z,7.17
2022-12-14T21:59:48.309Z,8.47
2022-12-14T22:04:57.413Z,9.17
2022-12-14T22:10:22.994Z,8.33
2022-12-14T22:15:40.937Z,8.47
2022-12-14T22:20:52.098Z,9.87
2022-12-14T22:31:25.348Z,9.83
2022-12-14T22:36:41.740Z,9.93
2022-12-14T22:42:00.033Z,10.60
2022-12-14T22:47:14.879Z,8.90
2022-12-14T22:52:31.242Z,7.13
2022-12-14T22:57:47.964Z,6.70
2022-12-14T23:03:03.611Z,10.47
2022-12-14T23:08:15.880Z,11.07
2022-12-14T23:13:45.152Z,8.83
2022-12-14T23:19:10.480Z,7.90
2022-12-14T23:24:39.446Z,8.70
2022-12-14T23:36:16.503Z,9.93
2022-12-14T23:41:40.167Z,6.83
2022-12-14T23:47:06.762Z,6.60
2022-12-14T23:52:35.217Z,7.33
2022-12-14T23:58:07.895Z,5.37
